Time;durP1;ratioP1;P1;durP2;ratioP2;P2;SDS_P1;SDS_P2;PMS_P1;PMS_P2;Temp;Humidity;BMP_temperature;BMP_pressure;BME280_temperature;BME280_humidity;BME280_pressure;Samples;Min_cycle;Max_cycle;Signal;HPM_P1;HPM_P2
2022/11/26 00:03:51;;;;;;;4.28;1.73;;;;;;;19.16;49.78;102543.63;16134118;19;130215;-40
2022/11/26 00:09:19;;;;;;;4.13;1.40;;;;;;;19.12;50.00;102548.75;16126154;19;129597;-43
2022/11/26 00:14:41;;;;;;;3.33;1.67;;;;;;;19.11;50.08;102547.03;16128716;19;129471;-39
2022/11/26 00:20:04;;;;;;;3.58;1.20;;;;;;;19.07;50.10;102546.63;16131741;19;129863;-40
2022/11/26 00:25:31;;;;;;;6.20;1.50;;;;;;;19.01;49.32;102552.16;16126379;19;131157;-38
2022/11/26 00:30:56;;;;;;;4.95;1.83;;;;;;;18.94;49.17;102557.66;16129081;19;130616;-37
2022/11/26 00:36:26;;;;;;;5.70;1.80;;;;;;;18.92;49.33;102562.56;16127241;19;130391;-38
2022/11/26 00:41:49;;;;;;;5.72;1.45;;;;;;;18.88;49.50;102558.47;16128501;19;129523;-38
2022/11/26 00:47:11;;;;;;;5.65;1.27;;;;;;;18.86;49.65;102555.06;16126501;19;131741;-37
2022/11/26 00:52:33;;;;;;;5.05;1.52;;;;;;;18.82;49.43;102543.53;16123582;19;129617;-38
2022/11/26 00:57:56;;;;;;;4.82;1.40;;;;;;;18.81;49.63;102549.31;16127330;19;129917;-38
2022/11/26 01:03:18;;;;;;;2.90;1.33;;;;;;;18.79;49.92;102548.66;16126250;19;129882;-37
2022/11/26 01:08:40;;;;;;;2.70;1.15;;;;;;;18.76;49.63;102572.94;16125131;19;129072;-37
2022/11/26 01:14:02;;;;;;;3.28;1.30;;;;;;;18.73;49.43;102570.59;16125291;19;129039;-37
2022/11/26 01:19:23;;;;;;;2.20;1.00;;;;;;;18.72;49.81;102582.72;16121451;19;130079;-38
2022/11/26 01:24:46;;;;;;;2.35;1.15;;;;;;;18.69;49.84;102583.16;16124107;19;131094;-37
2022/11/26 01:30:17;;;;;;;3.03;1.10;;;;;;;18.70;49.92;102590.44;16123800;19;129168;-37
2022/11/26 01:35:39;;;;;;;2.10;1.05;;;;;;;18.67;49.81;102585.28;16125820;19;129735;-37
2022/11/26 01:41:14;;;;;;;2.13;1.00;;;;;;;18.65;49.60;102595.72;16124096;19;130494;-37
2022/11/26 01:46:37;;;;;;;2.97;1.10;;;;;;;18.63;49.57;102606.16;16123257;19;130297;-37
2022/11/26 01:52:20;;;;;;;2.05;0.90;;;;;;;18.61;49.67;102598.06;16122106;19;130331;-37
2022/11/26 01:57:43;;;;;;;2.20;0.93;;;;;;;18.58;49.71;102600.41;16124416;19;129607;-37
2022/11/26 02:03:05;;;;;;;2.80;1.00;;;;;;;18.57;50.01;102595.91;16126205;19;131275;-38
2022/11/26 02:08:30;;;;;;;3.47;1.10;;;;;;;18.55;49.79;102592.47;16123993;19;129584;-38
2022/11/26 02:13:55;;;;;;;3.17;0.70;;;;;;;18.54;49.97;102596.31;16122179;19;129877;-37
2022/11/26 02:19:48;;;;;;;1.15;0.85;;;;;;;18.53;49.72;102614.84;16119099;19;129538;-38
2022/11/26 02:25:28;;;;;;;1.58;0.93;;;;;;;18.52;49.73;102615.06;16119398;19;128932;-37
2022/11/26 02:31:16;;;;;;;1.27;0.80;;;;;;;18.50;49.54;102625.47;16119607;19;129492;-37
2022/11/26 02:36:48;;;;;;;1.63;1.00;;;;;;;18.48;49.83;102642.31;16121967;19;129481;-38
2022/11/26 02:42:29;;;;;;;1.98;0.98;;;;;;;18.47;49.50;102646.16;16118483;19;129459;-38
2022/11/26 02:47:54;;;;;;;2.45;0.80;;;;;;;18.44;50.01;102643.78;16120749;19;130148;-37
2022/11/26 02:53:19;;;;;;;1.88;0.80;;;;;;;18.42;49.50;102641.22;16116770;19;129657;-38
2022/11/26 02:58:42;;;;;;;1.03;0.70;;;;;;;18.41;49.71;102633.09;16121399;19;129984;-38
2022/11/26 03:04:14;;;;;;;0.82;0.60;;;;;;;18.41;49.87;102639.50;16119018;19;129546;-38
2022/11/26 03:09:52;;;;;;;2.08;0.90;;;;;;;18.41;49.59;102638.63;16118079;19;129503;-37
2022/11/26 03:15:14;;;;;;;1.88;0.80;;;;;;;18.36;49.56;102639.22;16115669;19;130340;-38
2022/11/26 03:20:36;;;;;;;2.00;0.95;;;;;;;18.34;49.91;102635.78;16115754;19;130182;-37
2022/11/26 03:25:57;;;;;;;1.38;0.80;;;;;;;18.33;49.66;102645.19;16116930;19;135510;-37
2022/11/26 03:31:19;;;;;;;1.65;0.70;;;;;;;18.32;49.53;102640.69;16117770;19;129041;-37
2022/11/26 03:36:42;;;;;;;1.85;0.70;;;;;;;18.31;49.65;102656.44;16118671;19;129363;-37
2022/11/26 03:42:03;;;;;;;1.15;0.60;;;;;;;18.29;49.77;102641.94;16113710;19;129682;-38
2022/11/26 03:47:26;;;;;;;0.88;0.80;;;;;;;18.28;49.97;102653.25;16113400;19;130527;-37
2022/11/26 03:52:47;;;;;;;1.38;0.73;;;;;;;18.28;49.80;102659.63;16114231;19;129174;-37
2022/11/26 03:58:09;;;;;;;1.10;0.63;;;;;;;18.26;49.63;102658.13;16117563;19;129389;-38
2022/11/26 04:03:31;;;;;;;0.70;0.55;;;;;;;18.24;49.66;102660.22;16112997;19;130981;-37
2022/11/26 04:08:53;;;;;;;1.25;0.80;;;;;;;18.23;49.48;102661.28;16128776;19;129924;-37
2022/11/26 04:14:15;;;;;;;2.03;0.65;;;;;;;18.21;49.83;102671.72;16129559;19;130343;-38
2022/11/26 04:19:36;;;;;;;0.82;0.60;;;;;;;18.20;49.50;102673.63;16130781;19;129643;-38
2022/11/26 04:24:58;;;;;;;0.98;0.60;;;;;;;18.19;49.96;102683.00;16128834;19;129349;-38
2022/11/26 04:30:20;;;;;;;1.27;0.60;;;;;;;18.18;49.54;102674.91;16128088;19;129101;-37
2022/11/26 04:35:42;;;;;;;0.75;0.60;;;;;;;18.19;49.75;102671.06;16128457;19;130634;-38
2022/11/26 04:41:04;;;;;;;1.48;0.60;;;;;;;18.16;49.72;102669.53;16127899;19;130182;-37
2022/11/26 04:46:26;;;;;;;0.90;0.57;;;;;;;18.15;49.31;102676.16;16127309;19;129207;-37
2022/11/26 04:51:47;;;;;;;0.52;0.38;;;;;;;18.13;49.47;102670.81;16129968;19;130189;-37
2022/11/26 04:57:09;;;;;;;0.90;0.50;;;;;;;18.11;49.65;102664.59;16126381;19;129663;-38
2022/11/26 05:02:30;;;;;;;0.80;0.60;;;;;;;18.11;49.50;102680.38;16127850;19;129117;-37
2022/11/26 05:07:52;;;;;;;0.70;0.50;;;;;;;18.10;49.69;102684.22;16125360;19;131470;-37
2022/11/26 05:13:14;;;;;;;1.02;0.57;;;;;;;18.09;49.50;102682.50;16125043;19;129645;-37
2022/11/26 05:18:36;;;;;;;1.42;0.70;;;;;;;18.08;49.69;102684.41;16125557;19;129969;-37
2022/11/26 05:23:57;;;;;;;0.93;0.43;;;;;;;18.07;49.45;102704.84;16127286;19;130915;-38
2022/11/26 05:29:19;;;;;;;0.38;0.35;;;;;;;18.06;49.47;102717.00;16123629;19;129734;-37
2022/11/26 05:34:41;;;;;;;1.60;0.88;;;;;;;18.05;49.57;102715.28;16125499;19;130890;-38
2022/11/26 05:40:03;;;;;;;1.98;0.80;;;;;;;18.04;49.24;102721.88;16123921;19;130284;-37
2022/11/26 05:45:25;;;;;;;0.63;0.38;;;;;;;18.03;49.17;102722.91;16125264;19;130052;-38
2022/11/26 05:50:47;;;;;;;0.73;0.40;;;;;;;18.02;49.57;102723.97;16123053;19;130405;-38
2022/11/26 05:56:14;;;;;;;1.67;0.63;;;;;;;18.02;49.50;102721.19;16121367;19;130244;-38
2022/11/26 06:01:36;;;;;;;1.63;0.55;;;;;;;18.00;49.15;102720.53;16121666;19;129286;-38
2022/11/26 06:06:58;;;;;;;1.17;0.52;;;;;;;17.99;49.13;102718.81;16121359;19;130229;-38
2022/11/26 06:12:20;;;;;;;0.75;0.43;;;;;;;17.98;49.53;102722.66;16120059;19;130438;-37
2022/11/26 06:17:41;;;;;;;1.20;0.50;;;;;;;17.96;49.38;102728.38;16122609;19;130371;-37
2022/11/26 06:23:04;;;;;;;0.60;0.50;;;;;;;17.96;48.94;102725.63;16121283;19;129936;-37
2022/11/26 06:28:25;;;;;;;1.05;0.50;;;;;;;17.95;49.23;102732.22;16120213;19;129457;-37
2022/11/26 06:33:51;;;;;;;0.95;0.43;;;;;;;17.94;49.39;102732.41;16123326;19;129446;-38
2022/11/26 06:39:13;;;;;;;;;;;;;;;17.92;49.17;102743.69;16120484;19;130196;-38
2022/11/26 06:44:35;;;;;;;0.38;0.30;;;;;;;18.12;49.38;102754.97;16120435;19;129687;-37
2022/11/26 06:49:57;;;;;;;0.75;0.50;;;;;;;18.57;48.75;102762.22;16119645;19;129449;-38
2022/11/26 06:55:20;;;;;;;0.68;0.40;;;;;;;19.09;47.75;102760.00;16116433;19;130746;-38
2022/11/26 07:00:41;;;;;;;0.45;0.20;;;;;;;19.46;47.45;102768.09;16120998;19;129596;-38
2022/11/26 07:06:03;;;;;;;0.75;0.40;;;;;;;19.64;47.31;102768.38;16118681;19;129856;-38
2022/11/26 07:11:25;;;;;;;0.90;0.60;;;;;;;19.73;47.06;102782.94;16118260;19;130175;-38
2022/11/26 07:16:47;;;;;;;1.15;0.40;;;;;;;19.69;46.95;102784.41;16118311;19;129421;-38
2022/11/26 07:22:09;;;;;;;1.38;0.38;;;;;;;19.62;47.22;102787.16;16115292;19;131177;-38
2022/11/26 07:27:31;;;;;;;2.35;0.60;;;;;;;19.54;46.95;102779.03;16116779;19;130205;-38
2022/11/26 07:32:52;;;;;;;0.80;0.43;;;;;;;19.44;47.42;102776.63;16120020;19;132368;-43
2022/11/26 07:38:14;;;;;;;0.70;0.30;;;;;;;19.34;46.95;102776.16;16115403;19;130600;-37
2022/11/26 07:43:37;;;;;;;8.07;0.73;;;;;;;19.27;47.23;102784.44;16130409;19;130200;-41
2022/11/26 07:48:59;;;;;;;1.92;0.68;;;;;;;19.21;47.28;102785.25;16131150;19;130731;-38
2022/11/26 07:54:21;;;;;;;1.73;0.52;;;;;;;19.18;47.40;102791.22;16131328;19;129647;-37
2022/11/26 07:59:43;;;;;;;6.38;0.70;;;;;;;19.14;47.28;102792.66;16130028;19;130610;-37
2022/11/26 08:05:05;;;;;;;15.32;1.85;;;;;;;19.08;46.79;102791.56;16131185;19;129662;-37
2022/11/26 08:10:27;;;;;;;8.25;1.48;;;;;;;19.05;46.98;102794.75;16129472;19;129681;-38
2022/11/26 08:15:48;;;;;;;7.70;0.85;;;;;;;19.02;47.08;102804.34;16129817;19;130108;-37
2022/11/26 08:21:10;;;;;;;5.50;1.10;;;;;;;18.98;46.82;102800.25;16129460;19;130522;-37
2022/11/26 08:26:32;;;;;;;4.72;1.00;;;;;;;18.96;46.66;102798.75;16129418;19;130163;-37
2022/11/26 08:32:03;;;;;;;9.75;1.20;;;;;;;18.91;47.05;102802.13;16128654;19;131694;-38
2022/11/26 08:37:25;;;;;;;4.75;1.10;;;;;;;18.89;46.93;102818.94;16125582;19;129970;-36
2022/11/26 08:42:46;;;;;;;4.10;1.20;;;;;;;18.97;46.66;102817.94;16124796;19;130243;-38
2022/11/26 08:48:08;;;;;;;4.10;0.80;;;;;;;19.12;46.41;102803.09;16125780;19;129582;-38
2022/11/26 08:53:32;;;;;;;3.65;1.13;;;;;;;19.29;46.07;102809.22;16125433;19;129783;-43
2022/11/26 08:58:53;;;;;;;2.50;0.80;;;;;;;19.46;46.06;102815.28;16125776;19;129588;-45
2022/11/26 09:04:15;;;;;;;2.80;0.75;;;;;;;19.60;45.73;102813.44;16125215;19;129295;-45
2022/11/26 09:09:37;;;;;;;3.80;0.93;;;;;;;19.67;45.49;102822.63;16125129;19;129602;-48
2022/11/26 09:14:59;;;;;;;4.93;1.00;;;;;;;19.75;45.54;102816.03;16127313;19;130301;-44
2022/11/26 09:20:21;;;;;;;7.68;1.48;;;;;;;19.77;45.52;102833.38;16123507;19;129636;-52
2022/11/26 09:25:42;;;;;;;4.55;1.40;;;;;;;19.73;46.07;102841.25;16120483;19;131267;-51
2022/11/26 09:31:04;;;;;;;6.72;1.58;;;;;;;19.71;46.09;102828.63;16125227;19;129810;-42
2022/11/26 09:36:26;;;;;;;6.10;1.60;;;;;;;19.66;45.99;102826.47;16122655;19;129573;-39
2022/11/26 09:42:01;;;;;;;4.57;1.40;;;;;;;19.67;46.58;102811.53;16126307;19;129498;-39
2022/11/26 09:47:37;;;;;;;5.60;1.20;;;;;;;19.75;46.35;102822.47;16122122;19;129170;-39
2022/11/26 09:53:07;;;;;;;3.23;1.17;;;;;;;19.93;47.00;102835.78;16122688;19;130838;-42
2022/11/26 09:58:37;;;;;;;6.80;1.48;;;;;;;20.11;46.64;102828.78;16118976;19;130148;-39
2022/11/26 10:03:59;;;;;;;8.98;1.60;;;;;;;20.23;46.73;102843.78;16118157;19;129661;-39
2022/11/26 10:09:33;;;;;;;10.02;2.38;;;;;;;20.25;44.85;102836.09;16122644;19;130248;-39
2022/11/26 10:15:34;;;;;;;16.17;2.08;;;;;;;20.32;44.99;102832.47;16122298;19;129003;-40
2022/11/26 10:21:14;;;;;;;10.55;2.35;;;;;;;20.29;45.11;102828.19;16120270;19;129545;-39
2022/11/26 10:26:48;;;;;;;14.80;2.45;;;;;;;20.24;44.99;102833.53;16119413;19;130760;-39
2022/11/26 10:32:14;;;;;;;12.15;2.13;;;;;;;20.18;45.15;102828.81;16119614;19;129554;-41
2022/11/26 10:37:36;;;;;;;10.38;2.30;;;;;;;20.07;45.10;102816.38;16119637;19;129514;-40
2022/11/26 10:43:07;;;;;;;13.13;2.47;;;;;;;19.93;44.39;102816.34;16115985;19;129397;-39
2022/11/26 10:48:31;;;;;;;10.43;2.30;;;;;;;19.83;44.88;102813.06;16117771;19;130948;-40
2022/11/26 10:54:00;;;;;;;15.48;2.60;;;;;;;19.76;45.10;102817.75;16116231;19;129754;-39
2022/11/26 10:59:27;;;;;;;8.95;2.20;;;;;;;19.66;45.18;102816.25;16115444;19;135115;-41
2022/11/26 11:04:52;;;;;;;12.73;2.35;;;;;;;19.60;45.63;102819.00;16117179;19;130057;-39
2022/11/26 11:10:17;;;;;;;13.67;2.90;;;;;;;19.53;45.59;102797.59;16116053;19;130366;-40
2022/11/26 11:15:40;;;;;;;13.27;2.58;;;;;;;19.46;45.98;102793.94;16118351;19;129803;-40
2022/11/26 11:21:03;;;;;;;9.50;2.47;;;;;;;19.40;45.60;102802.25;16130216;19;130287;-40
2022/11/26 11:26:27;;;;;;;9.82;2.15;;;;;;;19.32;45.75;102804.09;16134011;19;129776;-39
2022/11/26 11:31:48;;;;;;;12.10;1.90;;;;;;;19.27;45.87;102789.13;16129515;19;129726;-39
2022/11/26 11:37:15;;;;;;;10.05;2.30;;;;;;;19.22;45.98;102786.97;16130511;19;130079;-39
2022/11/26 11:42:39;;;;;;;12.50;1.98;;;;;;;19.19;45.87;102799.31;16128934;19;134494;-39
2022/11/26 11:48:13;;;;;;;10.90;1.90;;;;;;;19.17;45.88;102786.72;16127797;19;129064;-39
2022/11/26 11:54:01;;;;;;;6.50;1.70;;;;;;;19.13;45.95;102793.72;16129928;19;129565;-39
2022/11/26 11:59:46;;;;;;;9.45;2.53;;;;;;;19.11;46.47;102795.84;16124505;19;129567;-39
2022/11/26 12:05:26;;;;;;;8.98;2.33;;;;;;;19.09;46.23;102793.28;16131293;19;129388;-39
2022/11/26 12:11:16;;;;;;;8.68;1.85;;;;;;;19.07;46.12;102801.81;16130210;19;130045;-39
2022/11/26 12:16:42;;;;;;;7.25;2.13;;;;;;;19.05;46.05;102800.28;16132535;19;130625;-39
2022/11/26 12:22:17;;;;;;;10.98;2.17;;;;;;;19.02;46.12;102796.00;16132602;19;129627;-39
2022/11/26 12:27:45;;;;;;;7.70;2.40;;;;;;;19.00;46.11;102800.06;16126709;19;129634;-41
2022/11/26 12:33:40;;;;;;;8.93;2.00;;;;;;;18.97;46.27;102792.97;16122874;19;129913;-40
2022/11/26 12:39:17;;;;;;;12.00;2.70;;;;;;;18.92;45.87;102795.53;16124329;19;129966;-39
2022/11/26 12:44:42;;;;;;;6.38;2.08;;;;;;;18.90;46.17;102792.09;16125908;19;130340;-39
2022/11/26 12:50:29;;;;;;;;;;;;;;;18.86;46.14;102785.22;16130951;19;129367;-39
2022/11/26 12:56:27;;;;;;;5.07;1.85;;;;;;;18.86;45.71;102782.44;16127032;19;129425;-39
2022/11/26 13:01:49;;;;;;;9.38;2.05;;;;;;;18.82;45.86;102782.00;16127143;19;130905;-39
2022/11/26 13:07:17;;;;;;;11.13;2.65;;;;;;;18.81;45.84;102771.13;16125744;19;129827;-38
2022/11/26 13:13:05;;;;;;;10.20;2.17;;;;;;;18.80;45.71;102772.19;16123939;19;130899;-37
2022/11/26 13:18:33;;;;;;;13.60;2.58;;;;;;;18.75;45.62;102767.25;16122836;19;129126;-37
2022/11/26 13:24:39;;;;;;;9.85;2.33;;;;;;;18.74;45.69;102766.38;16126044;19;130923;-38
2022/11/26 13:30:22;;;;;;;12.38;2.25;;;;;;;18.71;46.02;102755.69;16124673;19;129384;-37
2022/11/26 13:36:02;;;;;;;9.25;2.40;;;;;;;18.70;46.23;102747.59;16121649;19;130408;-37
2022/11/26 13:41:57;;;;;;;11.48;2.85;;;;;;;18.69;46.09;102741.19;16120127;19;129286;-37
2022/11/26 13:47:22;;;;;;;10.85;2.35;;;;;;;18.69;46.52;102732.00;16120776;19;129698;-37
2022/11/26 13:52:58;;;;;;;11.90;2.40;;;;;;;18.68;46.21;102728.38;16113804;19;129652;-37
2022/11/26 13:58:29;;;;;;;8.90;1.70;;;;;;;18.68;46.29;102713.66;16120207;19;129323;-37
2022/11/26 14:03:51;;;;;;;17.42;2.50;;;;;;;18.68;46.65;102708.97;16121244;19;129913;-37
2022/11/26 14:09:53;;;;;;;13.00;2.72;;;;;;;18.72;46.22;102698.34;16119925;19;130483;-36
2022/11/26 14:15:50;;;;;;;10.88;1.90;;;;;;;18.75;45.61;102689.63;16118911;19;130174;-38
2022/11/26 14:21:12;;;;;;;12.60;2.20;;;;;;;18.75;45.68;102701.56;16121173;19;130303;-37
2022/11/26 14:26:38;;;;;;;12.45;2.10;;;;;;;18.79;45.32;102706.69;16119875;19;130123;-37
2022/11/26 14:32:00;;;;;;;10.35;2.00;;;;;;;18.82;44.99;102703.53;16121549;19;129968;-37
2022/11/26 14:37:25;;;;;;;10.07;2.08;;;;;;;18.80;45.19;102709.25;16121216;19;130130;-38
2022/11/26 14:42:47;;;;;;;11.35;2.28;;;;;;;18.81;45.03;102707.34;16120393;19;129649;-37
2022/11/26 14:48:45;;;;;;;10.18;1.85;;;;;;;18.80;44.94;102711.19;16117072;19;129914;-37
2022/11/26 14:54:16;;;;;;;6.50;1.90;;;;;;;18.79;45.20;102715.84;16117305;19;130424;-37
2022/11/26 15:00:04;;;;;;;7.60;1.83;;;;;;;18.78;45.38;102711.38;16118987;19;134722;-37
2022/11/26 15:05:32;;;;;;;10.93;2.10;;;;;;;18.74;45.09;102718.41;16114158;19;129609;-37
2022/11/26 15:10:59;;;;;;;13.07;2.08;;;;;;;18.72;45.08;102731.59;16118223;19;130426;-37
2022/11/26 15:16:41;;;;;;;9.02;1.80;;;;;;;18.69;45.12;102720.91;16118660;19;129677;-37
2022/11/26 15:22:33;;;;;;;17.17;2.45;;;;;;;18.65;45.46;102722.38;16118318;19;130410;-37
2022/11/26 15:27:57;;;;;;;5.45;1.90;;;;;;;18.61;45.22;102710.84;16115542;19;129597;-37
2022/11/26 15:33:20;;;;;;;8.50;1.50;;;;;;;18.57;45.13;102709.56;16107587;19;129935;-38
2022/11/26 15:39:05;;;;;;;10.40;1.70;;;;;;;18.64;45.84;102706.81;16095667;19;130973;-38
2022/11/26 15:44:28;;;;;;;8.93;1.52;;;;;;;18.90;45.40;102706.13;16114554;19;129586;-38
2022/11/26 15:49:54;;;;;;;12.57;1.52;;;;;;;19.44;44.70;102700.84;16113350;19;129453;-39
2022/11/26 15:55:25;;;;;;;13.13;2.00;;;;;;;19.94;43.92;102695.78;16112620;19;130363;-38
2022/11/26 16:00:52;;;;;;;7.28;1.95;;;;;;;20.18;43.80;102701.84;16120071;19;129836;-38
2022/11/26 16:06:25;;;;;;;7.40;1.73;;;;;;;20.27;43.55;102706.13;16128205;19;130019;-38
2022/11/26 16:11:58;;;;;;;7.20;1.55;;;;;;;20.29;43.47;102715.09;16122498;19;130253;-38
2022/11/26 16:17:20;;;;;;;7.10;1.70;;;;;;;20.23;43.16;102715.09;16128709;19;130681;-40
2022/11/26 16:22:45;;;;;;;9.23;1.95;;;;;;;20.14;43.07;102717.22;16125524;19;129620;-38
2022/11/26 16:28:09;;;;;;;9.00;1.70;;;;;;;20.03;43.27;102709.53;16128221;19;129574;-38
2022/11/26 16:33:31;;;;;;;14.27;2.50;;;;;;;19.90;43.37;102716.75;16127962;19;128993;-38
2022/11/26 16:38:53;;;;;;;5.95;2.13;;;;;;;19.80;43.47;102705.19;16128558;19;129621;-38
2022/11/26 16:44:14;;;;;;;8.13;2.20;;;;;;;19.67;43.27;102701.34;16126352;19;129563;-38
2022/11/26 16:49:36;;;;;;;11.30;2.25;;;;;;;19.56;43.54;102699.19;16129526;19;129608;-38
2022/11/26 16:54:58;;;;;;;9.65;2.40;;;;;;;19.48;43.77;102696.56;16129489;19;130656;-38
2022/11/26 17:00:23;;;;;;;15.90;3.50;;;;;;;19.43;44.51;102699.13;16126384;19;129995;-38
2022/11/26 17:05:45;;;;;;;13.93;3.35;;;;;;;19.45;44.47;102700.63;16130546;19;129478;-39
2022/11/26 17:11:10;;;;;;;11.23;3.70;;;;;;;19.56;44.46;102693.63;16127021;19;130092;-38
2022/11/26 17:16:32;;;;;;;;;;;;;;;19.66;44.87;102694.06;16118300;19;130512;-38
2022/11/26 17:21:54;;;;;;;11.82;3.67;;;;;;;19.82;44.54;102686.38;16126004;19;130054;-38
2022/11/26 17:27:18;;;;;;;13.98;3.67;;;;;;;19.86;44.34;102687.69;16122187;19;130060;-38
2022/11/26 17:32:40;;;;;;;21.08;4.90;;;;;;;19.89;44.55;102684.47;16121068;19;129838;-38
2022/11/26 17:38:09;;;;;;;23.80;4.57;;;;;;;19.94;45.29;102676.34;16109764;19;130238;-38
2022/11/26 17:43:31;;;;;;;17.10;4.95;;;;;;;19.93;45.05;102671.91;16118181;19;129986;-38
2022/11/26 17:48:56;;;;;;;19.55;4.50;;;;;;;19.96;45.46;102662.28;16077975;19;130444;-38
2022/11/26 17:54:20;;;;;;;16.02;4.00;;;;;;;20.05;45.46;102651.84;16082183;19;130571;-37
2022/11/26 17:59:43;;;;;;;13.75;5.03;;;;;;;20.21;45.37;102650.53;16121832;19;129643;-37
2022/11/26 18:05:04;;;;;;;19.00;4.85;;;;;;;20.35;44.78;102645.81;16121025;19;129419;-37
2022/11/26 18:10:26;;;;;;;29.13;5.10;;;;;;;20.63;44.56;102636.34;16121592;19;129768;-37
2022/11/26 18:15:48;;;;;;;22.83;5.90;;;;;;;20.98;44.59;102628.56;16124647;19;129580;-39
2022/11/26 18:21:11;;;;;;;17.25;4.38;;;;;;;21.22;43.64;102618.56;16121180;19;129141;-38
2022/11/26 18:26:36;;;;;;;18.98;4.85;;;;;;;21.35;43.60;102617.63;16117393;19;128981;-38
2022/11/26 18:31:58;;;;;;;19.65;5.00;;;;;;;21.45;43.43;102622.69;16121462;19;131089;-38
2022/11/26 18:37:19;;;;;;;19.90;4.47;;;;;;;21.49;43.14;102609.22;16120372;19;129799;-38
2022/11/26 18:42:41;;;;;;;18.08;4.82;;;;;;;21.48;43.64;102611.13;16121339;19;129453;-38
2022/11/26 18:48:03;;;;;;;23.80;4.97;;;;;;;21.41;43.75;102599.19;16118626;19;129773;-38
2022/11/26 18:53:26;;;;;;;18.35;4.90;;;;;;;21.31;43.57;102615.50;16117507;19;129662;-38
2022/11/26 18:58:49;;;;;;;18.55;4.65;;;;;;;21.19;43.97;102607.88;16119045;19;131507;-38
2022/11/26 19:04:11;;;;;;;25.55;4.68;;;;;;;21.06;43.95;102607.94;16116340;19;130217;-38
2022/11/26 19:09:33;;;;;;;23.73;4.70;;;;;;;20.94;43.94;102601.38;16116147;19;130365;-38
2022/11/26 19:14:55;;;;;;;23.92;4.75;;;;;;;20.83;44.17;102608.50;16116861;19;129484;-37
2022/11/26 19:20:16;;;;;;;23.25;4.57;;;;;;;20.71;44.50;102614.72;16116676;19;129423;-38
2022/11/26 19:25:38;;;;;;;20.17;4.25;;;;;;;20.64;44.79;102610.25;16114902;19;130846;-38
2022/11/26 19:31:05;;;;;;;16.55;3.80;;;;;;;20.55;44.59;102618.84;16118055;19;129491;-38
2022/11/26 19:36:28;;;;;;;15.98;4.38;;;;;;;20.47;44.57;102618.22;16122285;19;129953;-38
2022/11/26 19:41:50;;;;;;;16.05;4.05;;;;;;;20.40;45.06;102635.75;16132752;19;130132;-38
2022/11/26 19:47:12;;;;;;;33.33;4.90;;;;;;;20.33;45.09;102631.25;16123623;19;129528;-38
2022/11/26 19:52:33;;;;;;;20.85;4.38;;;;;;;20.27;44.67;102628.31;16130742;19;129710;-38
2022/11/26 19:57:55;;;;;;;27.65;4.30;;;;;;;20.32;44.29;102640.66;16127272;19;132240;-38
2022/11/26 20:03:17;;;;;;;24.88;4.10;;;;;;;20.36;44.15;102634.50;16127352;19;130914;-38
2022/11/26 20:08:39;;;;;;;19.52;3.92;;;;;;;20.38;44.07;102650.94;16126813;19;129697;-38
2022/11/26 20:14:02;;;;;;;16.00;3.90;;;;;;;20.37;44.09;102652.00;16129696;19;129333;-38
2022/11/26 20:19:23;;;;;;;11.15;3.00;;;;;;;20.38;44.07;102650.94;16126485;19;129896;-38
2022/11/26 20:24:45;;;;;;;13.20;3.33;;;;;;;20.43;44.18;102653.94;16129024;19;129908;-38
2022/11/26 20:30:08;;;;;;;12.85;3.25;;;;;;;20.51;44.08;102650.91;16127452;19;129587;-39
2022/11/26 20:35:29;;;;;;;10.25;2.85;;;;;;;20.55;43.95;102648.56;16125268;19;130646;-39
2022/11/26 20:40:51;;;;;;;12.95;2.35;;;;;;;20.53;43.94;102662.69;16129014;19;129490;-38
2022/11/26 20:46:13;;;;;;;10.45;3.20;;;;;;;20.49;43.70;102663.34;16127656;19;129985;-38
2022/11/26 20:51:38;;;;;;;14.30;2.58;;;;;;;20.38;44.18;102653.72;16127900;19;129580;-38
2022/11/26 20:57:00;;;;;;;38.43;3.43;;;;;;;20.32;44.09;102643.44;16125658;19;129975;-38
2022/11/26 21:02:21;;;;;;;21.58;3.15;;;;;;;20.24;44.36;102623.16;16125962;19;129538;-38
2022/11/26 21:07:43;;;;;;;25.58;2.92;;;;;;;20.20;44.75;102619.09;16126901;19;130396;-39
2022/11/26 21:13:06;;;;;;;21.15;2.80;;;;;;;20.14;45.07;102614.41;16126279;19;130496;-38
2022/11/26 21:18:28;;;;;;;33.67;3.03;;;;;;;20.10;45.08;102599.25;16126108;19;129310;-38
2022/11/26 21:23:50;;;;;;;23.08;2.70;;;;;;;20.06;44.95;102575.75;16126168;19;129312;-38
2022/11/26 21:29:12;;;;;;;10.65;2.58;;;;;;;20.01;45.25;102556.94;16123480;19;130847;-39
2022/11/26 21:34:33;;;;;;;11.43;1.92;;;;;;;19.99;44.88;102556.28;16126608;19;131095;-38
2022/11/26 21:39:55;;;;;;;25.77;3.30;;;;;;;19.93;45.48;102541.34;16122505;19;129566;-38
2022/11/26 21:45:17;;;;;;;23.50;2.05;;;;;;;19.85;45.74;102549.88;16121679;19;129450;-38
2022/11/26 21:50:39;;;;;;;16.80;2.33;;;;;;;19.77;45.44;102536.22;16118841;19;130180;-38
2022/11/26 21:56:19;;;;;;;16.23;2.03;;;;;;;19.69;45.07;102521.47;16115671;19;129703;-39
2022/11/26 22:01:41;;;;;;;8.57;1.77;;;;;;;19.63;45.14;102510.41;16121151;19;129509;-39
2022/11/26 22:07:03;;;;;;;12.13;2.03;;;;;;;19.58;45.47;102493.53;16120869;19;130022;-38
2022/11/26 22:12:25;;;;;;;10.30;2.15;;;;;;;19.53;45.39;102488.63;16122204;19;129896;-38
2022/11/26 22:17:47;;;;;;;8.50;1.90;;;;;;;19.47;45.08;102473.66;16123006;19;129942;-38
2022/11/26 22:23:08;;;;;;;8.25;1.58;;;;;;;19.43;45.01;102479.88;16120122;19;128968;-38
2022/11/26 22:28:30;;;;;;;4.50;1.40;;;;;;;19.37;45.33;102476.88;16119248;19;129512;-38
2022/11/26 22:33:54;;;;;;;6.78;1.38;;;;;;;19.35;45.12;102467.91;16120177;19;129656;-38
2022/11/26 22:39:17;;;;;;;5.70;1.70;;;;;;;19.30;45.10;102470.47;16118622;19;129571;-38
2022/11/26 22:44:39;;;;;;;6.70;1.35;;;;;;;19.27;44.75;102468.13;16122259;19;130085;-38
2022/11/26 22:50:00;;;;;;;6.28;1.40;;;;;;;19.22;44.75;102465.13;16118998;19;129750;-38
2022/11/26 22:55:22;;;;;;;4.03;1.23;;;;;;;19.20;44.83;102457.00;16115534;19;129592;-38
2022/11/26 23:00:49;;;;;;;7.68;1.40;;;;;;;19.18;44.81;102458.28;16118191;19;129758;-38
2022/11/26 23:06:14;;;;;;;4.95;1.02;;;;;;;19.15;44.57;102458.69;16118462;19;129472;-38
2022/11/26 23:11:38;;;;;;;7.20;1.80;;;;;;;19.11;44.90;102446.31;16118822;19;129592;-38
2022/11/26 23:17:00;;;;;;;7.30;1.10;;;;;;;19.08;45.00;102442.88;16119582;19;129820;-38
2022/11/26 23:22:21;;;;;;;3.65;1.08;;;;;;;19.05;44.97;102426.69;16117924;19;129370;-39
2022/11/26 23:27:43;;;;;;;3.05;1.38;;;;;;;19.04;44.79;102440.75;16117273;19;129788;-38
2022/11/26 23:33:05;;;;;;;3.75;1.17;;;;;;;19.01;44.91;102442.03;16116180;19;129964;-39
2022/11/26 23:38:27;;;;;;;3.97;1.08;;;;;;;19.00;44.70;102428.41;16118713;19;130357;-38
2022/11/26 23:43:49;;;;;;;3.13;0.90;;;;;;;18.97;44.87;102429.66;16119009;19;130109;-39
2022/11/26 23:49:11;;;;;;;2.95;0.90;;;;;;;18.93;44.56;102422.84;16117215;19;129849;-38
2022/11/26 23:54:33;;;;;;;2.47;0.90;;;;;;;18.93;44.92;102420.06;16117040;19;129382;-39
2022/11/26 23:59:55;;;;;;;3.88;0.85;;;;;;;18.91;44.53;102416.66;16118380;19;129591;-38
